createdAt,value
2019-05-02T00:01:53.468Z,31.27
2019-05-02T00:04:59.326Z,30.87
2019-05-02T00:08:04.322Z,28.17
2019-05-02T00:11:10.609Z,31.07
2019-05-02T00:14:15.769Z,31.77
2019-05-02T00:17:25.657Z,30.67
2019-05-02T00:20:29.262Z,32.87
2019-05-02T00:23:34.182Z,32.37
2019-05-02T00:26:39.194Z,35.00
2019-05-02T00:29:44.184Z,34.83
2019-05-02T00:32:53.220Z,36.70
2019-05-02T00:35:55.872Z,34.27
2019-05-02T00:39:00.877Z,32.80
2019-05-02T00:42:12.367Z,33.33
2019-05-02T00:45:14.173Z,35.07
2019-05-02T00:48:41.401Z,34.00
2019-05-02T00:51:46.458Z,33.67
2019-05-02T00:54:54.995Z,33.33
2019-05-02T00:57:58.182Z,30.07
2019-05-02T01:01:37.538Z,33.17
2019-05-02T01:04:44.004Z,34.17
2019-05-02T01:07:49.097Z,31.60
2019-05-02T01:10:56.964Z,33.23
2019-05-02T01:14:00.906Z,31.37
2019-05-02T01:17:05.981Z,29.60
2019-05-02T01:20:11.489Z,35.07
2019-05-02T01:23:16.513Z,33.20
2019-05-02T01:26:24.149Z,31.70
2019-05-02T01:29:48.970Z,32.33
2019-05-02T01:33:01.304Z,34.17
2019-05-02T01:36:11.886Z,35.13
2019-05-02T01:39:16.965Z,36.53
2019-05-02T01:42:22.006Z,36.07
2019-05-02T01:45:26.997Z,33.23
2019-05-02T01:48:32.098Z,34.37
2019-05-02T01:51:41.778Z,36.30
2019-05-02T01:54:45.726Z,33.93
2019-05-02T01:57:50.666Z,33.37
2019-05-02T02:00:55.750Z,34.50
2019-05-02T02:04:00.762Z,33.37
2019-05-02T02:07:05.851Z,35.30
2019-05-02T02:10:15.054Z,34.17
2019-05-02T02:13:17.666Z,36.13
2019-05-02T02:16:22.661Z,36.07
2019-05-02T02:19:34.696Z,36.30
2019-05-02T02:22:56.278Z,34.33
2019-05-02T02:26:06.827Z,33.10
2019-05-02T02:29:11.018Z,36.03
2019-05-02T02:32:20.160Z,37.80
2019-05-02T02:35:22.842Z,35.10
2019-05-02T02:38:33.516Z,36.73
2019-05-02T02:41:34.639Z,34.63
2019-05-02T02:44:51.707Z,33.77
2019-05-02T02:47:59.799Z,34.00
2019-05-02T02:51:03.520Z,34.00
2019-05-02T02:54:08.607Z,34.53
2019-05-02T02:57:25.432Z,32.53
2019-05-02T03:00:20.389Z,35.00
2019-05-02T03:03:28.158Z,33.90
2019-05-02T03:06:32.402Z,31.87
2019-05-02T03:09:37.510Z,32.80
2019-05-02T03:13:04.446Z,33.20
2019-05-02T03:16:13.468Z,33.07
2019-05-02T03:19:21.264Z,32.13
2019-05-02T03:22:25.346Z,35.87
2019-05-02T03:25:49.306Z,35.03
2019-05-02T03:28:37.427Z,35.10
2019-05-02T03:31:42.469Z,34.87
2019-05-02T03:34:52.858Z,33.90
2019-05-02T03:37:54.378Z,33.30
2019-05-02T03:40:59.963Z,35.40
2019-05-02T03:44:11.277Z,34.60
2019-05-02T03:47:11.843Z,35.00
2019-05-02T03:50:16.929Z,36.27
2019-05-02T03:53:25.387Z,34.07
2019-05-02T03:56:29.845Z,34.93
2019-05-02T03:59:38.853Z,34.33
2019-05-02T04:02:41.880Z,35.70
2019-05-02T04:05:47.631Z,37.10
2019-05-02T04:08:58.859Z,35.50
2019-05-02T04:11:59.868Z,36.00
2019-05-02T04:15:09.399Z,34.13
2019-05-02T04:18:15.371Z,38.17
2019-05-02T04:21:24.422Z,37.80
2019-05-02T04:24:26.280Z,35.30
2019-05-02T04:27:34.053Z,36.90
2019-05-02T04:30:38.107Z,36.00
2019-05-02T04:33:43.366Z,33.40
2019-05-02T04:37:00.243Z,33.73
2019-05-02T04:40:00.697Z,33.70
2019-05-02T04:43:08.238Z,33.80
2019-05-02T04:46:17.939Z,33.63
2019-05-02T04:49:20.116Z,31.13
2019-05-02T04:52:22.335Z,33.77
2019-05-02T04:55:32.377Z,32.73
2019-05-02T04:58:37.181Z,32.20
2019-05-02T05:01:49.202Z,33.33
2019-05-02T05:04:49.484Z,32.27
2019-05-02T05:07:54.066Z,33.73
2019-05-02T05:10:59.061Z,34.20
2019-05-02T05:14:04.161Z,34.07
2019-05-02T05:17:09.178Z,34.10
2019-05-02T05:20:15.783Z,33.20
2019-05-02T05:23:34.676Z,37.30
2019-05-02T05:26:43.076Z,40.90
2019-05-02T05:29:48.588Z,36.37
2019-05-02T05:32:53.843Z,36.40
2019-05-02T05:35:58.938Z,35.87
2019-05-02T05:39:08.578Z,35.47
2019-05-02T05:42:12.346Z,33.10
2019-05-02T05:45:17.518Z,32.50
2019-05-02T05:48:22.514Z,37.37
2019-05-02T05:51:28.798Z,36.50
2019-05-02T05:54:38.368Z,36.67
2019-05-02T05:57:40.440Z,39.43
2019-05-02T06:00:45.869Z,38.80
2019-05-02T06:03:52.180Z,39.50
2019-05-02T06:07:01.646Z,41.97
2019-05-02T06:10:07.819Z,38.73
2019-05-02T06:13:12.821Z,36.60
2019-05-02T06:16:17.927Z,33.87
2019-05-02T06:19:23.496Z,40.90
2019-05-02T06:22:28.570Z,34.63
2019-05-02T06:25:36.405Z,32.30
2019-05-02T06:28:41.513Z,32.67
2019-05-02T06:31:46.993Z,34.47
2019-05-02T06:34:52.005Z,31.47
2019-05-02T06:37:56.970Z,32.17
2019-05-02T06:41:02.062Z,31.87
2019-05-02T06:44:10.238Z,31.90
2019-05-02T06:47:14.937Z,32.07
2019-05-02T06:50:20.442Z,31.03
2019-05-02T06:53:25.578Z,33.37
2019-05-02T06:56:31.109Z,30.30
2019-05-02T06:59:37.212Z,30.50
2019-05-02T07:02:42.382Z,31.70
2019-05-02T07:05:49.174Z,32.57
2019-05-02T07:08:54.991Z,29.67
2019-05-02T07:12:01.580Z,28.53
2019-05-02T07:15:11.585Z,27.33
2019-05-02T07:18:17.643Z,39.00
2019-05-02T07:21:23.658Z,29.27
2019-05-02T07:24:30.582Z,28.20
2019-05-02T07:27:35.908Z,25.97
2019-05-02T07:30:41.163Z,24.87
2019-05-02T07:33:46.317Z,25.73
2019-05-02T07:36:51.326Z,22.40
2019-05-02T07:39:56.420Z,21.50
2019-05-02T07:43:01.461Z,21.30
2019-05-02T07:46:06.548Z,21.40
2019-05-02T07:49:11.639Z,18.10
2019-05-02T07:52:16.703Z,18.93
2019-05-02T07:55:21.732Z,19.77
2019-05-02T07:58:26.770Z,18.70
2019-05-02T08:01:31.787Z,19.07
2019-05-02T08:04:36.883Z,20.73
2019-05-02T08:07:41.845Z,23.60
2019-05-02T08:10:47.026Z,23.13
2019-05-02T08:13:55.638Z,22.67
2019-05-02T08:17:05.368Z,24.33
2019-05-02T08:20:08.517Z,23.93
2019-05-02T08:23:13.626Z,23.73
2019-05-02T08:26:21.772Z,26.43
2019-05-02T08:29:28.890Z,24.87
2019-05-02T08:32:32.134Z,26.73
2019-05-02T08:35:37.426Z,27.37
2019-05-02T08:38:42.493Z,25.77
2019-05-02T08:41:51.228Z,26.13
2019-05-02T08:44:56.460Z,26.13
2019-05-02T08:48:05.123Z,28.00
2019-05-02T08:51:08.720Z,26.00
2019-05-02T08:54:14.257Z,26.90
2019-05-02T08:57:19.711Z,24.63
2019-05-02T09:00:25.250Z,29.20
2019-05-02T09:03:38.908Z,28.87
2019-05-02T09:06:37.477Z,28.63
2019-05-02T09:09:42.457Z,29.70
2019-05-02T09:12:47.406Z,29.83
2019-05-02T09:15:54.297Z,26.77
2019-05-02T09:18:59.125Z,28.27
2019-05-02T09:22:07.643Z,24.97
2019-05-02T09:25:12.591Z,25.40
2019-05-02T09:28:22.654Z,26.97
2019-05-02T09:31:24.694Z,24.63
2019-05-02T09:34:31.732Z,27.60
2019-05-02T09:37:36.447Z,24.50
2019-05-02T09:40:42.611Z,26.23
2019-05-02T09:43:47.990Z,23.00
2019-05-02T09:46:56.879Z,23.47
2019-05-02T09:50:12.923Z,23.47
2019-05-02T09:53:20.540Z,22.60
2019-05-02T09:56:24.890Z,22.70
2019-05-02T09:59:33.211Z,20.67
2019-05-02T10:02:38.409Z,22.33
2019-05-02T10:05:43.524Z,19.33
2019-05-02T10:08:48.619Z,18.07
2019-05-02T10:11:53.665Z,19.40
2019-05-02T10:14:58.699Z,22.23
2019-05-02T10:18:10.964Z,26.37
2019-05-02T10:21:13.578Z,20.90
2019-05-02T10:24:19.123Z,20.83
2019-05-02T10:27:24.222Z,19.53
2019-05-02T10:30:35.234Z,19.97
2019-05-02T10:33:38.460Z,20.27
2019-05-02T10:36:45.507Z,20.27
2019-05-02T10:39:52.162Z,20.70
2019-05-02T10:42:57.024Z,19.07
2019-05-02T10:46:27.834Z,20.67
2019-05-02T10:49:40.011Z,17.27
2019-05-02T10:52:44.958Z,18.30
2019-05-02T10:55:52.223Z,17.73
2019-05-02T10:58:56.767Z,17.83
2019-05-02T11:02:19.479Z,18.33
2019-05-02T11:05:26.638Z,18.60
2019-05-02T11:08:32.129Z,19.27
2019-05-02T11:11:37.352Z,19.30
2019-05-02T11:14:48.486Z,23.07
2019-05-02T11:17:53.597Z,20.03
2019-05-02T11:20:59.036Z,21.20
2019-05-02T11:24:05.513Z,22.10
2019-05-02T11:27:12.681Z,18.53
2019-05-02T11:30:22.420Z,19.70
2019-05-02T11:33:24.404Z,17.27
2019-05-02T11:36:29.445Z,17.20
2019-05-02T11:39:44.279Z,20.20
2019-05-02T11:42:41.667Z,21.47
2019-05-02T11:45:46.859Z,23.90
2019-05-02T11:48:56.349Z,25.77
2019-05-02T11:52:01.556Z,28.93
2019-05-02T11:55:05.756Z,20.20
2019-05-02T11:58:12.497Z,23.87
2019-05-02T12:01:19.757Z,25.63
2019-05-02T12:04:24.420Z,26.13
2019-05-02T12:07:29.460Z,29.63
2019-05-02T12:10:36.623Z,27.00
2019-05-02T12:13:42.798Z,27.27
2019-05-02T12:16:47.940Z,28.40
2019-05-02T12:19:52.958Z,28.17
2019-05-02T12:22:58.014Z,23.10
2019-05-02T12:26:03.174Z,22.70
2019-05-02T12:29:08.126Z,20.07
2019-05-02T12:32:15.513Z,20.93
2019-05-02T12:35:19.937Z,23.47
2019-05-02T12:38:25.111Z,24.77
2019-05-02T12:41:32.901Z,25.17
2019-05-02T12:44:37.157Z,22.33
2019-05-02T12:47:42.776Z,24.10
2019-05-02T12:50:48.069Z,18.00
2019-05-02T12:53:53.055Z,16.03
2019-05-02T12:56:58.073Z,14.37
2019-05-02T13:00:03.790Z,14.47
2019-05-02T13:03:26.858Z,11.60
2019-05-02T13:06:32.748Z,12.20
2019-05-02T13:09:38.003Z,12.83
2019-05-02T13:12:43.886Z,15.03
2019-05-02T13:15:49.056Z,14.60
2019-05-02T13:18:57.372Z,17.53
2019-05-02T13:22:29.018Z,15.63
2019-05-02T13:25:36.954Z,15.37
2019-05-02T13:28:43.668Z,16.43
2019-05-02T13:31:56.905Z,16.40
2019-05-02T13:35:24.538Z,14.83
2019-05-02T13:38:29.721Z,17.10
2019-05-02T13:41:34.922Z,16.33
2019-05-02T13:44:47.182Z,16.33
2019-05-02T13:47:52.355Z,19.07
2019-05-02T13:50:57.592Z,20.63
2019-05-02T13:54:02.775Z,19.90
2019-05-02T13:57:07.874Z,20.03
2019-05-02T14:00:15.073Z,21.70
2019-05-02T14:03:20.267Z,20.20
2019-05-02T14:06:29.879Z,19.87
2019-05-02T14:10:06.470Z,20.77
2019-05-02T14:13:12.505Z,16.80
2019-05-02T14:16:17.542Z,19.23
2019-05-02T14:19:22.640Z,18.73
2019-05-02T14:22:29.307Z,20.13
2019-05-02T14:25:34.321Z,19.70
2019-05-02T14:28:39.367Z,19.50
2019-05-02T14:31:44.386Z,19.30
2019-05-02T14:34:55.708Z,19.30
2019-05-02T14:38:14.053Z,23.80
2019-05-02T14:41:30.093Z,22.43
2019-05-02T14:45:03.213Z,19.77
2019-05-02T14:47:42.262Z,22.10
2019-05-02T14:50:47.073Z,19.80
2019-05-02T14:53:52.746Z,21.40
2019-05-02T14:57:04.017Z,20.37
2019-05-02T15:00:09.575Z,20.67
2019-05-02T15:03:14.614Z,21.07
2019-05-02T15:06:19.838Z,21.23
2019-05-02T15:09:26.901Z,23.83
2019-05-02T15:12:32.521Z,21.47
2019-05-02T15:15:41.056Z,21.43
2019-05-02T15:18:47.515Z,19.73
2019-05-02T15:21:52.515Z,24.30
2019-05-02T15:24:57.941Z,21.90
2019-05-02T15:28:02.985Z,21.73
2019-05-02T15:31:11.983Z,22.03
2019-05-02T15:34:23.994Z,21.23
2019-05-02T15:37:29.804Z,20.40
2019-05-02T15:40:43.509Z,21.27
2019-05-02T15:43:44.270Z,22.50
2019-05-02T15:46:48.517Z,22.03
2019-05-02T15:49:53.507Z,24.17
2019-05-02T15:53:09.923Z,22.00
2019-05-02T15:56:19.742Z,28.60
2019-05-02T15:59:32.688Z,25.97
2019-05-02T16:02:39.338Z,23.10
2019-05-02T16:05:45.249Z,20.90
2019-05-02T16:08:52.010Z,22.40
2019-05-02T16:11:57.306Z,21.47
2019-05-02T16:15:04.988Z,23.23
2019-05-02T16:18:09.345Z,21.10
2019-05-02T16:21:27.026Z,23.97
2019-05-02T16:24:29.221Z,22.17
2019-05-02T16:27:45.321Z,23.37
2019-05-02T16:30:52.554Z,25.77
2019-05-02T16:33:57.791Z,24.17
2019-05-02T16:37:13.224Z,25.63
2019-05-02T16:40:22.057Z,25.33
2019-05-02T16:43:25.459Z,26.67
2019-05-02T16:46:32.237Z,25.63
2019-05-02T16:49:38.213Z,26.77
2019-05-02T16:52:47.217Z,24.33
2019-05-02T16:55:50.015Z,24.77
2019-05-02T16:58:55.021Z,23.63
2019-05-02T17:02:07.714Z,24.20
2019-05-02T17:05:09.253Z,25.30
2019-05-02T17:08:30.478Z,26.53
2019-05-02T17:11:38.934Z,29.33
2019-05-02T17:14:52.621Z,30.07
2019-05-02T17:17:54.430Z,28.60
2019-05-02T17:21:01.582Z,31.90
2019-05-02T17:24:06.560Z,30.33
2019-05-02T17:27:12.966Z,30.80
2019-05-02T17:30:18.586Z,30.00
2019-05-02T17:33:23.690Z,32.90
2019-05-02T17:36:30.090Z,30.60
2019-05-02T17:39:37.379Z,28.30
2019-05-02T17:42:44.442Z,30.87
2019-05-02T17:45:49.174Z,29.90
2019-05-02T17:48:54.323Z,26.97
2019-05-02T17:52:26.796Z,28.83
2019-05-02T17:55:34.550Z,29.20
2019-05-02T17:58:35.238Z,27.70
2019-05-02T18:01:41.884Z,25.93
2019-05-02T18:04:52.136Z,26.70
2019-05-02T18:07:53.732Z,24.97
2019-05-02T18:11:02.137Z,25.77
2019-05-02T18:14:16.186Z,25.43
2019-05-02T18:17:12.810Z,33.43
2019-05-02T18:20:18.294Z,26.20
2019-05-02T18:23:27.385Z,24.53
2019-05-02T18:26:31.785Z,25.00
2019-05-02T18:29:42.554Z,23.77
2019-05-02T18:32:43.505Z,23.40
2019-05-02T18:35:48.712Z,25.40
2019-05-02T18:39:00.246Z,26.27
2019-05-02T18:42:00.708Z,23.93
2019-05-02T18:45:07.338Z,25.07
2019-05-02T18:48:12.797Z,24.87
2019-05-02T18:51:19.077Z,25.83
2019-05-02T18:54:24.603Z,24.57
2019-05-02T18:57:30.154Z,23.83
2019-05-02T19:00:39.540Z,22.20
2019-05-02T19:03:47.123Z,25.97
2019-05-02T19:06:51.914Z,23.70
2019-05-02T19:09:58.929Z,22.07
2019-05-02T19:13:06.125Z,24.33
2019-05-02T19:16:12.987Z,24.77
2019-05-02T19:19:18.395Z,21.47
2019-05-02T19:22:23.531Z,22.23
2019-05-02T19:25:28.707Z,22.70
2019-05-02T19:28:39.194Z,23.17
2019-05-02T19:31:49.243Z,21.30
2019-05-02T19:34:57.798Z,21.33
2019-05-02T19:38:02.583Z,21.50
2019-05-02T19:41:09.314Z,19.67
2019-05-02T19:44:15.357Z,20.17
2019-05-02T19:47:22.006Z,18.73
2019-05-02T19:50:41.652Z,24.30
2019-05-02T19:53:43.339Z,19.10
2019-05-02T19:56:48.757Z,19.47
2019-05-02T19:59:57.063Z,18.93
2019-05-02T20:03:01.768Z,20.67
2019-05-02T20:06:07.683Z,22.53
2019-05-02T20:09:13.411Z,22.50
2019-05-02T20:12:19.075Z,23.73
2019-05-02T20:15:26.969Z,27.40
2019-05-02T20:18:36.748Z,27.33
2019-05-02T20:22:14.693Z,24.97
2019-05-02T20:25:19.750Z,24.43
2019-05-02T20:28:24.801Z,23.87
2019-05-02T20:31:29.767Z,24.30
2019-05-02T20:34:34.803Z,26.73
2019-05-02T20:37:41.891Z,25.50
2019-05-02T20:40:46.678Z,24.27
2019-05-02T20:43:52.182Z,25.20
2019-05-02T20:46:57.217Z,24.70
2019-05-02T20:50:02.717Z,26.00
2019-05-02T20:53:11.984Z,23.90
2019-05-02T20:56:16.054Z,25.30
2019-05-02T20:59:21.840Z,25.10
2019-05-02T21:02:27.177Z,26.80
2019-05-02T21:05:42.811Z,24.07
2019-05-02T21:09:25.626Z,22.80
2019-05-02T21:12:30.792Z,23.47
2019-05-02T21:15:36.024Z,23.93
2019-05-02T21:18:42.267Z,25.57
2019-05-02T21:21:47.791Z,22.67
2019-05-02T21:24:53.022Z,22.63
2019-05-02T21:27:58.168Z,22.03
2019-05-02T21:31:03.169Z,24.37
2019-05-02T21:34:08.235Z,23.33
2019-05-02T21:37:14.270Z,23.97
2019-05-02T21:40:19.362Z,26.40
2019-05-02T21:43:24.449Z,24.43
2019-05-02T21:46:29.390Z,25.10
2019-05-02T21:49:52.879Z,22.07
2019-05-02T21:53:22.086Z,24.53
2019-05-02T21:56:37.405Z,24.10
2019-05-02T21:59:42.506Z,24.13
2019-05-02T22:02:47.681Z,22.83
2019-05-02T22:05:52.782Z,23.70
2019-05-02T22:08:57.881Z,26.10
2019-05-02T22:12:02.973Z,24.73
2019-05-02T22:15:08.285Z,23.97
2019-05-02T22:18:13.384Z,30.63
2019-05-02T22:21:18.485Z,26.70
2019-05-02T22:24:23.581Z,26.70
2019-05-02T22:27:28.622Z,28.67
2019-05-02T22:30:33.710Z,30.93
2019-05-02T22:33:38.834Z,26.80
2019-05-02T22:36:44.044Z,32.50
2019-05-02T22:39:54.862Z,29.27
2019-05-02T22:43:01.948Z,32.70
2019-05-02T22:46:08.330Z,30.20
2019-05-02T22:49:15.246Z,32.73
2019-05-02T22:52:21.818Z,31.23
2019-05-02T22:55:27.133Z,35.87
2019-05-02T22:58:32.675Z,36.87
2019-05-02T23:01:37.894Z,35.20
2019-05-02T23:04:42.851Z,37.73
2019-05-02T23:07:47.895Z,33.80
2019-05-02T23:10:53.057Z,40.23
2019-05-02T23:13:58.198Z,39.73
2019-05-02T23:17:03.306Z,36.23
2019-05-02T23:20:08.406Z,34.93
2019-05-02T23:23:13.594Z,36.13
2019-05-02T23:26:27.214Z,36.83
2019-05-02T23:29:32.334Z,34.23
2019-05-02T23:32:37.286Z,35.10
2019-05-02T23:35:42.983Z,33.50
2019-05-02T23:38:48.177Z,33.97
2019-05-02T23:41:53.307Z,36.00
2019-05-02T23:44:58.327Z,37.20
2019-05-02T23:48:03.634Z,38.20
2019-05-02T23:51:08.655Z,35.47
2019-05-02T23:54:13.741Z,36.27
2019-05-02T23:57:18.769Z,37.27
